sensor_id;sensor_type;location;lat;lon;timestamp;pressure;altitude;pressure_sealevel;temperature;humidity
69214;BME280;56325;47.030;18.518;2022-12-11T00:02:05;98468.44;;;1.54;100.00
69214;BME280;56325;47.030;18.518;2022-12-11T00:04:40;98472.22;;;1.56;100.00
69214;BME280;56325;47.030;18.518;2022-12-11T00:07:14;98477.78;;;1.53;100.00
69214;BME280;56325;47.030;18.518;2022-12-11T00:09:50;98468.44;;;1.54;100.00
69214;BME280;56325;47.030;18.518;2022-12-11T00:12:24;98479.59;;;1.56;100.00
69214;BME280;56325;47.030;18.518;2022-12-11T00:14:59;98473.12;;;1.53;100.00
69214;BME280;56325;47.030;18.518;2022-12-11T00:17:35;98466.19;;;1.52;100.00
69214;BME280;56325;47.030;18.518;2022-12-11T00:20:10;98471.72;;;1.49;100.00
69214;BME280;56325;47.030;18.518;2022-12-11T00:22:44;98468.22;;;1.61;100.00
69214;BME280;56325;47.030;18.518;2022-12-11T00:25:20;98455.09;;;1.59;100.00
69214;BME280;56325;47.030;18.518;2022-12-11T00:27:54;98477.03;;;1.52;99.95
69214;BME280;56325;47.030;18.518;2022-12-11T00:30:29;98477.34;;;1.54;100.00
69214;BME280;56325;47.030;18.518;2022-12-11T00:33:03;98498.69;;;1.52;100.00
69214;BME280;56325;47.030;18.518;2022-12-11T00:35:38;98493.63;;;1.42;100.00
69214;BME280;56325;47.030;18.518;2022-12-11T00:38:14;98490.69;;;1.49;100.00
69214;BME280;56325;47.030;18.518;2022-12-11T00:40:50;98497.69;;;1.59;100.00
69214;BME280;56325;47.030;18.518;2022-12-11T00:43:24;98509.53;;;1.52;99.75
69214;BME280;56325;47.030;18.518;2022-12-11T00:45:59;98518.84;;;1.51;100.00
69214;BME280;56325;47.030;18.518;2022-12-11T00:48:34;98511.91;;;1.50;100.00
69214;BME280;56325;47.030;18.518;2022-12-11T00:51:09;98517.44;;;1.47;99.90
69214;BME280;56325;47.030;18.518;2022-12-11T00:53:43;98513.88;;;1.50;99.77
69214;BME280;56325;47.030;18.518;2022-12-11T00:56:21;98531.22;;;1.40;100.00
69214;BME280;56325;47.030;18.518;2022-12-11T00:58:56;98554.97;;;1.36;99.68
69214;BME280;56325;47.030;18.518;2022-12-11T01:01:30;98557.34;;;1.34;99.62
69214;BME280;56325;47.030;18.518;2022-12-11T01:04:05;98552.25;;;1.36;99.85
69214;BME280;56325;47.030;18.518;2022-12-11T01:06:39;98540.13;;;1.40;100.00
69214;BME280;56325;47.030;18.518;2022-12-11T01:09:13;98550.63;;;1.38;99.81
69214;BME280;56325;47.030;18.518;2022-12-11T01:12:07;98556.81;;;1.26;99.74
69214;BME280;56325;47.030;18.518;2022-12-11T01:14:41;98585.09;;;1.25;99.67
69214;BME280;56325;47.030;18.518;2022-12-11T01:17:16;98572.44;;;1.22;100.00
69214;BME280;56325;47.030;18.518;2022-12-11T01:19:52;98585.63;;;1.20;100.00
69214;BME280;56325;47.030;18.518;2022-12-11T01:22:26;98584.25;;;1.15;100.00
69214;BME280;56325;47.030;18.518;2022-12-11T01:25:01;98586.50;;;1.17;99.73
69214;BME280;56325;47.030;18.518;2022-12-11T01:27:37;98573.63;;;1.08;99.94
69214;BME280;56325;47.030;18.518;2022-12-11T01:30:12;98577.31;;;1.02;100.00
69214;BME280;56325;47.030;18.518;2022-12-11T01:32:47;98594.75;;;1.01;99.98
69214;BME280;56325;47.030;18.518;2022-12-11T01:35:22;98587.59;;;0.94;100.00
69214;BME280;56325;47.030;18.518;2022-12-11T01:37:56;98581.66;;;0.99;100.00
69214;BME280;56325;47.030;18.518;2022-12-11T01:40:31;98585.34;;;0.92;100.00
69214;BME280;56325;47.030;18.518;2022-12-11T01:43:10;98597.78;;;0.90;100.00
69214;BME280;56325;47.030;18.518;2022-12-11T01:45:46;98594.62;;;0.91;100.00
69214;BME280;56325;47.030;18.518;2022-12-11T01:48:23;98599.84;;;0.98;100.00
69214;BME280;56325;47.030;18.518;2022-12-11T01:51:00;98591.06;;;0.94;100.00
69214;BME280;56325;47.030;18.518;2022-12-11T01:53:38;98577.66;;;0.91;100.00
69214;BME280;56325;47.030;18.518;2022-12-11T01:56:13;98585.66;;;0.94;100.00
69214;BME280;56325;47.030;18.518;2022-12-11T01:58:52;98600.41;;;0.81;100.00
69214;BME280;56325;47.030;18.518;2022-12-11T02:01:32;98587.53;;;0.85;100.00
69214;BME280;56325;47.030;18.518;2022-12-11T02:04:08;98576.37;;;0.83;100.00
69214;BME280;56325;47.030;18.518;2022-12-11T02:06:46;98592.03;;;0.88;100.00
69214;BME280;56325;47.030;18.518;2022-12-11T02:09:23;98572.16;;;0.82;100.00
69214;BME280;56325;47.030;18.518;2022-12-11T02:12:02;98571.06;;;0.79;100.00
69214;BME280;56325;47.030;18.518;2022-12-11T02:14:43;98572.16;;;0.82;100.00
69214;BME280;56325;47.030;18.518;2022-12-11T02:17:22;98564.91;;;0.79;100.00
69214;BME280;56325;47.030;18.518;2022-12-11T02:20:05;98568.78;;;0.78;100.00
69214;BME280;56325;47.030;18.518;2022-12-11T02:23:10;98570.31;;;0.79;100.00
69214;BME280;56325;47.030;18.518;2022-12-11T02:25:55;98577.91;;;0.84;100.00
69214;BME280;56325;47.030;18.518;2022-12-11T02:28:32;98572.91;;;0.82;100.00
69214;BME280;56325;47.030;18.518;2022-12-11T02:31:11;98560.91;;;0.83;100.00
69214;BME280;56325;47.030;18.518;2022-12-11T02:33:51;98573.88;;;0.76;100.00
69214;BME280;56325;47.030;18.518;2022-12-11T02:36:30;98565.00;;;0.75;100.00
69214;BME280;56325;47.030;18.518;2022-12-11T02:39:09;98563.94;;;0.73;100.00
69214;BME280;56325;47.030;18.518;2022-12-11T02:41:48;98571.72;;;0.83;100.00
69214;BME280;56325;47.030;18.518;2022-12-11T02:44:27;98564.16;;;0.78;100.00
69214;BME280;56325;47.030;18.518;2022-12-11T02:47:05;98560.69;;;0.78;100.00
69214;BME280;56325;47.030;18.518;2022-12-11T02:49:42;98556.69;;;0.82;100.00
69214;BME280;56325;47.030;18.518;2022-12-11T02:52:21;98561.53;;;0.87;100.00
69214;BME280;56325;47.030;18.518;2022-12-11T02:54:58;98538.06;;;0.84;100.00
69214;BME280;56325;47.030;18.518;2022-12-11T02:57:38;98538.37;;;0.86;100.00
69214;BME280;56325;47.030;18.518;2022-12-11T03:00:17;98533.03;;;0.95;100.00
69214;BME280;56325;47.030;18.518;2022-12-11T03:02:52;98541.50;;;0.97;100.00
69214;BME280;56325;47.030;18.518;2022-12-11T03:05:28;98533.81;;;0.96;100.00
69214;BME280;56325;47.030;18.518;2022-12-11T03:08:03;98535.97;;;1.01;100.00
69214;BME280;56325;47.030;18.518;2022-12-11T03:10:38;98529.25;;;0.93;100.00
69214;BME280;56325;47.030;18.518;2022-12-11T03:13:14;98526.00;;;0.98;99.85
69214;BME280;56325;47.030;18.518;2022-12-11T03:15:58;98530.56;;;0.88;100.00
69214;BME280;56325;47.030;18.518;2022-12-11T03:18:40;98520.47;;;1.02;99.70
69214;BME280;56325;47.030;18.518;2022-12-11T03:21:24;98530.44;;;1.05;98.92
69214;BME280;56325;47.030;18.518;2022-12-11T03:24:03;98536.91;;;1.20;98.61
69214;BME280;56325;47.030;18.518;2022-12-11T03:26:44;98541.78;;;1.12;98.31
69214;BME280;56325;47.030;18.518;2022-12-11T03:29:34;98546.44;;;1.12;98.12
69214;BME280;56325;47.030;18.518;2022-12-11T03:32:13;98551.44;;;1.13;98.12
69214;BME280;56325;47.030;18.518;2022-12-11T03:34:53;98555.66;;;1.14;98.58
69214;BME280;56325;47.030;18.518;2022-12-11T03:37:33;98547.22;;;1.12;98.36
69214;BME280;56325;47.030;18.518;2022-12-11T03:40:12;98554.66;;;1.21;97.70
69214;BME280;56325;47.030;18.518;2022-12-11T03:42:50;98560.19;;;1.17;97.78
69214;BME280;56325;47.030;18.518;2022-12-11T03:45:26;98567.87;;;1.19;97.59
69214;BME280;56325;47.030;18.518;2022-12-11T03:48:04;98559.66;;;1.22;97.65
69214;BME280;56325;47.030;18.518;2022-12-11T03:50:41;98580.12;;;1.23;97.22
69214;BME280;56325;47.030;18.518;2022-12-11T03:53:19;98567.66;;;1.26;97.53
69214;BME280;56325;47.030;18.518;2022-12-11T03:55:55;98585.22;;;1.21;97.65
69214;BME280;56325;47.030;18.518;2022-12-11T03:58:33;98573.63;;;1.21;98.07
69214;BME280;56325;47.030;18.518;2022-12-11T04:01:08;98577.72;;;1.25;97.15
69214;BME280;56325;47.030;18.518;2022-12-11T04:03:44;98580.00;;;1.27;97.07
69214;BME280;56325;47.030;18.518;2022-12-11T04:06:18;98580.75;;;1.27;96.67
69214;BME280;56325;47.030;18.518;2022-12-11T04:08:53;98581.63;;;1.24;97.04
69214;BME280;56325;47.030;18.518;2022-12-11T04:11:27;98582.50;;;1.21;96.90
69214;BME280;56325;47.030;18.518;2022-12-11T04:14:09;98592.47;;;1.24;96.90
69214;BME280;56325;47.030;18.518;2022-12-11T04:17:01;98594.09;;;1.22;97.23
69214;BME280;56325;47.030;18.518;2022-12-11T04:19:37;98591.06;;;1.20;98.13
69214;BME280;56325;47.030;18.518;2022-12-11T04:22:40;98607.72;;;1.18;98.04
69214;BME280;56325;47.030;18.518;2022-12-11T04:25:32;98615.63;;;1.25;96.96
69214;BME280;56325;47.030;18.518;2022-12-11T04:28:07;98614.75;;;1.28;97.34
69214;BME280;56325;47.030;18.518;2022-12-11T04:30:47;98616.94;;;1.34;97.55
69214;BME280;56325;47.030;18.518;2022-12-11T04:33:22;98627.75;;;1.34;96.98
69214;BME280;56325;47.030;18.518;2022-12-11T04:35:58;98629.37;;;1.31;96.67
69214;BME280;56325;47.030;18.518;2022-12-11T04:38:32;98646.28;;;1.22;96.83
69214;BME280;56325;47.030;18.518;2022-12-11T04:41:09;98637.19;;;1.29;96.57
69214;BME280;56325;47.030;18.518;2022-12-11T04:43:44;98639.78;;;1.20;96.73
69214;BME280;56325;47.030;18.518;2022-12-11T04:46:22;98638.16;;;1.22;96.95
69214;BME280;56325;47.030;18.518;2022-12-11T04:48:56;98640.22;;;1.31;97.11
69214;BME280;56325;47.030;18.518;2022-12-11T04:51:33;98656.16;;;1.29;97.09
69214;BME280;56325;47.030;18.518;2022-12-11T04:54:07;98664.25;;;1.29;96.76
69214;BME280;56325;47.030;18.518;2022-12-11T04:56:42;98644.56;;;1.28;96.46
69214;BME280;56325;47.030;18.518;2022-12-11T04:59:16;98647.38;;;1.25;96.53
69214;BME280;56325;47.030;18.518;2022-12-11T05:01:50;98649.97;;;1.28;95.94
69214;BME280;56325;47.030;18.518;2022-12-11T05:04:25;98640.97;;;1.31;96.21
69214;BME280;56325;47.030;18.518;2022-12-11T05:07:01;98656.03;;;1.33;95.95
69214;BME280;56325;47.030;18.518;2022-12-11T05:09:35;98636.09;;;1.26;96.09
69214;BME280;56325;47.030;18.518;2022-12-11T05:12:10;98641.28;;;1.34;96.21
69214;BME280;56325;47.030;18.518;2022-12-11T05:14:44;98637.94;;;1.29;96.16
69214;BME280;56325;47.030;18.518;2022-12-11T05:17:19;98646.06;;;1.29;95.73
69214;BME280;56325;47.030;18.518;2022-12-11T05:19:54;98626.25;;;1.33;95.62
69214;BME280;56325;47.030;18.518;2022-12-11T05:22:30;98643.03;;;1.27;96.00
69214;BME280;56325;47.030;18.518;2022-12-11T05:25:05;98626.91;;;1.24;96.17
69214;BME280;56325;47.030;18.518;2022-12-11T05:27:40;98634.91;;;1.27;96.33
69214;BME280;56325;47.030;18.518;2022-12-11T05:30:15;98623.31;;;1.27;96.11
69214;BME280;56325;47.030;18.518;2022-12-11T05:32:49;98641.72;;;1.32;95.58
69214;BME280;56325;47.030;18.518;2022-12-11T05:35:23;98629.28;;;1.35;95.59
69214;BME280;56325;47.030;18.518;2022-12-11T05:37:59;98637.72;;;1.37;95.37
69214;BME280;56325;47.030;18.518;2022-12-11T05:40:33;98674.13;;;1.36;95.40
69214;BME280;56325;47.030;18.518;2022-12-11T05:43:08;98668.38;;;1.34;95.01
69214;BME280;56325;47.030;18.518;2022-12-11T05:45:42;98671.75;;;1.38;94.98
69214;BME280;56325;47.030;18.518;2022-12-11T05:48:17;98688.53;;;1.33;94.85
69214;BME280;56325;47.030;18.518;2022-12-11T05:50:58;98670.44;;;1.29;95.36
69214;BME280;56325;47.030;18.518;2022-12-11T05:53:34;98661.00;;;1.34;95.44
69214;BME280;56325;47.030;18.518;2022-12-11T05:56:11;98668.16;;;1.28;95.48
69214;BME280;56325;47.030;18.518;2022-12-11T05:58:47;98676.94;;;1.32;95.28
69214;BME280;56325;47.030;18.518;2022-12-11T06:01:23;98663.41;;;1.32;95.40
69214;BME280;56325;47.030;18.518;2022-12-11T06:03:58;98651.47;;;1.29;95.20
69214;BME280;56325;47.030;18.518;2022-12-11T06:06:33;98671.62;;;1.28;94.78
69214;BME280;56325;47.030;18.518;2022-12-11T06:09:12;98668.06;;;1.31;94.59
69214;BME280;56325;47.030;18.518;2022-12-11T06:11:46;98683.13;;;1.33;95.33
69214;BME280;56325;47.030;18.518;2022-12-11T06:14:21;98671.62;;;1.28;95.12
69214;BME280;56325;47.030;18.518;2022-12-11T06:16:55;98686.78;;;1.26;95.06
69214;BME280;56325;47.030;18.518;2022-12-11T06:19:29;98692.09;;;1.29;94.90
69214;BME280;56325;47.030;18.518;2022-12-11T06:22:08;98689.63;;;1.35;94.62
69214;BME280;56325;47.030;18.518;2022-12-11T06:24:44;98664.16;;;1.33;94.39
69214;BME280;56325;47.030;18.518;2022-12-11T06:27:19;98679.00;;;1.41;94.00
69214;BME280;56325;47.030;18.518;2022-12-11T06:29:54;98697.87;;;2.70;100.00
69214;BME280;56325;47.030;18.518;2022-12-11T06:32:29;98699.44;;;1.67;93.44
69214;BME280;56325;47.030;18.518;2022-12-11T06:35:06;98714.09;;;1.57;92.54
69214;BME280;56325;47.030;18.518;2022-12-11T06:37:41;98710.94;;;1.58;92.41
69214;BME280;56325;47.030;18.518;2022-12-11T06:40:17;98727.75;;;1.53;92.36
69214;BME280;56325;47.030;18.518;2022-12-11T06:42:52;98730.34;;;1.57;92.42
69214;BME280;56325;47.030;18.518;2022-12-11T06:45:27;98733.94;;;1.54;92.19
69214;BME280;56325;47.030;18.518;2022-12-11T06:48:01;98742.16;;;1.63;91.54
69214;BME280;56325;47.030;18.518;2022-12-11T06:50:38;98744.00;;;1.66;91.63
69214;BME280;56325;47.030;18.518;2022-12-11T06:53:15;98758.09;;;1.61;91.31
69214;BME280;56325;47.030;18.518;2022-12-11T06:55:50;98751.59;;;1.58;90.80
69214;BME280;56325;47.030;18.518;2022-12-11T06:58:25;98750.81;;;1.58;90.56
69214;BME280;56325;47.030;18.518;2022-12-11T07:00:59;98744.00;;;1.66;90.55
69214;BME280;56325;47.030;18.518;2022-12-11T07:03:34;98774.13;;;1.68;90.58
69214;BME280;56325;47.030;18.518;2022-12-11T07:06:08;98767.50;;;1.69;90.07
69214;BME280;56325;47.030;18.518;2022-12-11T07:08:43;98777.16;;;1.70;89.98
69214;BME280;56325;47.030;18.518;2022-12-11T07:11:20;98784.72;;;1.75;89.79
69214;BME280;56325;47.030;18.518;2022-12-11T07:13:57;98787.88;;;1.74;89.11
69214;BME280;56325;47.030;18.518;2022-12-11T07:16:32;98794.38;;;1.76;89.02
69214;BME280;56325;47.030;18.518;2022-12-11T07:19:08;98789.59;;;1.80;88.65
69214;BME280;56325;47.030;18.518;2022-12-11T07:21:43;98802.19;;;1.74;89.21
69214;BME280;56325;47.030;18.518;2022-12-11T07:24:17;98817.56;;;1.77;89.10
69214;BME280;56325;47.030;18.518;2022-12-11T07:26:53;98820.94;;;1.69;90.11
69214;BME280;56325;47.030;18.518;2022-12-11T07:29:28;98828.75;;;1.92;90.77
69214;BME280;56325;47.030;18.518;2022-12-11T07:32:02;98815.25;;;3.39;95.84
69214;BME280;56325;47.030;18.518;2022-12-11T07:34:37;98825.88;;;2.34;87.26
69214;BME280;56325;47.030;18.518;2022-12-11T07:37:12;98823.19;;;2.90;92.15
69214;BME280;56325;47.030;18.518;2022-12-11T07:39:48;98819.47;;;2.40;86.11
69214;BME280;56325;47.030;18.518;2022-12-11T07:42:24;98835.66;;;2.18;87.19
69214;BME280;56325;47.030;18.518;2022-12-11T07:44:59;98842.28;;;2.05;87.08
69214;BME280;56325;47.030;18.518;2022-12-11T07:47:33;98831.22;;;1.99;87.53
69214;BME280;56325;47.030;18.518;2022-12-11T07:50:10;98839.78;;;1.97;87.57
69214;BME280;56325;47.030;18.518;2022-12-11T07:52:45;98845.66;;;1.96;88.16
69214;BME280;56325;47.030;18.518;2022-12-11T07:55:19;98841.75;;;1.97;87.21
69214;BME280;56325;47.030;18.518;2022-12-11T07:57:55;98852.69;;;1.93;87.68
69214;BME280;56325;47.030;18.518;2022-12-11T08:00:30;98846.31;;;2.00;87.62
69214;BME280;56325;47.030;18.518;2022-12-11T08:03:04;98856.06;;;1.97;86.91
69214;BME280;56325;47.030;18.518;2022-12-11T08:05:40;98843.91;;;1.89;86.89
69214;BME280;56325;47.030;18.518;2022-12-11T08:08:19;98846.38;;;2.47;88.39
69214;BME280;56325;47.030;18.518;2022-12-11T08:10:54;98875.59;;;2.18;85.74
69214;BME280;56325;47.030;18.518;2022-12-11T08:13:30;98869.72;;;2.07;86.32
69214;BME280;56325;47.030;18.518;2022-12-11T08:16:07;98882.97;;;2.05;87.20
69214;BME280;56325;47.030;18.518;2022-12-11T08:18:42;98875.59;;;2.05;86.04
69214;BME280;56325;47.030;18.518;2022-12-11T08:21:19;98869.06;;;2.03;86.29
69214;BME280;56325;47.030;18.518;2022-12-11T08:23:54;98864.19;;;1.97;86.52
69214;BME280;56325;47.030;18.518;2022-12-11T08:26:29;98856.50;;;1.96;86.55
69214;BME280;56325;47.030;18.518;2022-12-11T08:29:06;98864.31;;;1.94;85.82
69214;BME280;56325;47.030;18.518;2022-12-11T08:31:41;98876.03;;;2.04;86.39
69214;BME280;56325;47.030;18.518;2022-12-11T08:34:16;98864.84;;;2.02;87.13
69214;BME280;56325;47.030;18.518;2022-12-11T08:36:50;98884.69;;;1.98;86.40
69214;BME280;56325;47.030;18.518;2022-12-11T08:39:25;98878.50;;;2.11;85.65
69214;BME280;56325;47.030;18.518;2022-12-11T08:42:00;98876.56;;;3.71;96.29
69214;BME280;56325;47.030;18.518;2022-12-11T08:44:36;98885.22;;;2.91;89.91
69214;BME280;56325;47.030;18.518;2022-12-11T08:47:10;98878.25;;;2.56;84.03
69214;BME280;56325;47.030;18.518;2022-12-11T08:49:45;98900.22;;;2.36;85.79
69214;BME280;56325;47.030;18.518;2022-12-11T08:52:19;98889.16;;;2.18;85.30
69214;BME280;56325;47.030;18.518;2022-12-11T08:54:53;98894.25;;;2.16;86.31
69214;BME280;56325;47.030;18.518;2022-12-11T08:57:27;98888.37;;;2.17;85.90
69214;BME280;56325;47.030;18.518;2022-12-11T09:00:06;98878.72;;;2.29;86.42
69214;BME280;56325;47.030;18.518;2022-12-11T09:02:41;98879.47;;;2.29;85.79
69214;BME280;56325;47.030;18.518;2022-12-11T09:05:16;98884.47;;;2.31;85.04
69214;BME280;56325;47.030;18.518;2022-12-11T09:07:50;98894.22;;;2.41;86.91
69214;BME280;56325;47.030;18.518;2022-12-11T09:10:25;98888.91;;;2.38;86.12
69214;BME280;56325;47.030;18.518;2022-12-11T09:13:00;98889.34;;;2.36;85.32
69214;BME280;56325;47.030;18.518;2022-12-11T09:15:39;98884.78;;;2.33;85.03
69214;BME280;56325;47.030;18.518;2022-12-11T09:18:13;98891.53;;;2.41;85.98
69214;BME280;56325;47.030;18.518;2022-12-11T09:20:57;98902.16;;;2.48;85.07
69214;BME280;56325;47.030;18.518;2022-12-11T09:23:31;98905.19;;;2.50;84.28
69214;BME280;56325;47.030;18.518;2022-12-11T09:26:07;98918.75;;;2.50;84.96
69214;BME280;56325;47.030;18.518;2022-12-11T09:28:43;98908.63;;;2.63;84.82
69214;BME280;56325;47.030;18.518;2022-12-11T09:31:24;98918.75;;;2.50;84.34
69214;BME280;56325;47.030;18.518;2022-12-11T09:34:00;98907.25;;;2.46;85.46
69214;BME280;56325;47.030;18.518;2022-12-11T09:36:34;98916.91;;;2.47;84.46
69214;BME280;56325;47.030;18.518;2022-12-11T09:39:12;98918.87;;;2.47;85.46
69214;BME280;56325;47.030;18.518;2022-12-11T09:41:52;98915.94;;;2.88;86.96
69214;BME280;56325;47.030;18.518;2022-12-11T09:44:34;98924.50;;;2.52;85.41
69214;BME280;56325;47.030;18.518;2022-12-11T09:47:25;98922.22;;;2.51;84.74
69214;BME280;56325;47.030;18.518;2022-12-11T09:50:05;98925.81;;;2.48;84.85
69214;BME280;56325;47.030;18.518;2022-12-11T09:52:56;98936.78;;;2.44;83.97
69214;BME280;56325;47.030;18.518;2022-12-11T09:55:42;98921.47;;;2.50;84.80
69214;BME280;56325;47.030;18.518;2022-12-11T09:58:28;98938.28;;;2.45;84.30
69214;BME280;56325;47.030;18.518;2022-12-11T10:01:08;98929.59;;;2.38;83.94
69214;BME280;56325;47.030;18.518;2022-12-11T10:04:04;98910.50;;;2.28;84.90
69214;BME280;56325;47.030;18.518;2022-12-11T10:06:47;98912.47;;;2.41;84.88
69214;BME280;56325;47.030;18.518;2022-12-11T10:09:31;98925.16;;;2.44;85.27
69214;BME280;56325;47.030;18.518;2022-12-11T10:12:31;98928.31;;;2.42;83.94
69214;BME280;56325;47.030;18.518;2022-12-11T10:15:25;98928.84;;;2.37;83.60
69214;BME280;56325;47.030;18.518;2022-12-11T10:18:03;98949.34;;;2.38;83.29
69214;BME280;56325;47.030;18.518;2022-12-11T10:20:41;98945.66;;;2.45;84.26
69214;BME280;56325;47.030;18.518;2022-12-11T10:23:19;98933.84;;;2.51;84.12
69214;BME280;56325;47.030;18.518;2022-12-11T10:26:00;98937.19;;;2.55;83.09
69214;BME280;56325;47.030;18.518;2022-12-11T10:28:36;98940.47;;;2.50;83.63
69214;BME280;56325;47.030;18.518;2022-12-11T10:31:15;98928.75;;;2.41;84.72
69214;BME280;56325;47.030;18.518;2022-12-11T10:33:58;98929.81;;;2.43;83.03
69214;BME280;56325;47.030;18.518;2022-12-11T10:36:35;98924.41;;;2.43;83.97
69214;BME280;56325;47.030;18.518;2022-12-11T10:39:11;98935.63;;;2.67;83.41
69214;BME280;56325;47.030;18.518;2022-12-11T10:41:48;98939.91;;;2.55;82.69
69214;BME280;56325;47.030;18.518;2022-12-11T10:44:25;98924.44;;;2.78;82.54
69214;BME280;56325;47.030;18.518;2022-12-11T10:47:04;98928.22;;;2.80;82.35
69214;BME280;56325;47.030;18.518;2022-12-11T10:49:42;98914.78;;;2.77;82.15
69214;BME280;56325;47.030;18.518;2022-12-11T10:52:21;98930.59;;;2.91;82.35
69214;BME280;56325;47.030;18.518;2022-12-11T10:55:00;98926.06;;;2.88;81.13
69214;BME280;56325;47.030;18.518;2022-12-11T10:57:37;98926.50;;;2.74;81.32
69214;BME280;56325;47.030;18.518;2022-12-11T11:00:34;98904.41;;;2.97;81.44
69214;BME280;56325;47.030;18.518;2022-12-11T11:03:20;98930.94;;;2.93;80.81
69214;BME280;56325;47.030;18.518;2022-12-11T11:06:02;98932.22;;;3.01;81.26
69214;BME280;56325;47.030;18.518;2022-12-11T11:08:40;98936.75;;;3.04;80.94
69214;BME280;56325;47.030;18.518;2022-12-11T11:11:22;98927.97;;;3.00;80.62
69214;BME280;56325;47.030;18.518;2022-12-11T11:14:13;98928.41;;;2.99;80.70
69214;BME280;56325;47.030;18.518;2022-12-11T11:16:48;98930.22;;;3.14;80.66
69214;BME280;56325;47.030;18.518;2022-12-11T11:19:26;98940.59;;;3.28;80.58
69214;BME280;56325;47.030;18.518;2022-12-11T11:22:05;98940.25;;;2.92;80.07
69214;BME280;56325;47.030;18.518;2022-12-11T11:24:44;98939.28;;;2.99;80.25
69214;BME280;56325;47.030;18.518;2022-12-11T11:30:56;98932.97;;;3.02;79.81
69214;BME280;56325;47.030;18.518;2022-12-11T11:33:34;98942.44;;;2.97;80.28
69214;BME280;56325;47.030;18.518;2022-12-11T11:36:19;98946.50;;;3.14;80.08
69214;BME280;56325;47.030;18.518;2022-12-11T11:39:14;98963.09;;;3.51;86.71
69214;BME280;56325;47.030;18.518;2022-12-11T11:41:59;98957.66;;;3.73;82.20
69214;BME280;56325;47.030;18.518;2022-12-11T11:44:39;98961.84;;;3.65;79.43
69214;BME280;56325;47.030;18.518;2022-12-11T11:47:19;98968.53;;;3.29;80.02
69214;BME280;56325;47.030;18.518;2022-12-11T11:49:59;98974.63;;;3.20;79.03
69214;BME280;56325;47.030;18.518;2022-12-11T11:52:40;98987.28;;;3.02;79.73
69214;BME280;56325;47.030;18.518;2022-12-11T11:55:19;98991.97;;;2.88;80.34
69214;BME280;56325;47.030;18.518;2022-12-11T11:58:07;98996.22;;;2.77;80.37
69214;BME280;56325;47.030;18.518;2022-12-11T12:00:43;99002.50;;;2.74;81.15
69214;BME280;56325;47.030;18.518;2022-12-11T12:03:20;98992.19;;;2.69;81.69
69214;BME280;56325;47.030;18.518;2022-12-11T12:06:06;99000.56;;;2.74;80.93
69214;BME280;56325;47.030;18.518;2022-12-11T12:08:56;98985.13;;;2.71;81.67
69214;BME280;56325;47.030;18.518;2022-12-11T12:11:39;98989.50;;;2.69;80.89
69214;BME280;56325;47.030;18.518;2022-12-11T12:14:22;98993.50;;;2.64;81.55
69214;BME280;56325;47.030;18.518;2022-12-11T12:17:22;98988.28;;;2.70;80.86
69214;BME280;56325;47.030;18.518;2022-12-11T12:20:12;98984.59;;;2.63;80.88
69214;BME280;56325;47.030;18.518;2022-12-11T12:22:58;98999.25;;;2.66;80.88
69214;BME280;56325;47.030;18.518;2022-12-11T12:25:38;98993.75;;;2.57;80.77
69214;BME280;56325;47.030;18.518;2022-12-11T12:28:19;98995.25;;;2.71;81.37
69214;BME280;56325;47.030;18.518;2022-12-11T12:31:08;98988.19;;;2.73;81.08
69214;BME280;56325;47.030;18.518;2022-12-11T12:33:57;99001.00;;;2.73;81.34
69214;BME280;56325;47.030;18.518;2022-12-11T12:36:43;99000.44;;;2.65;81.01
69214;BME280;56325;47.030;18.518;2022-12-11T12:42:52;99009.34;;;2.66;81.10
69214;BME280;56325;47.030;18.518;2022-12-11T12:45:35;99013.72;;;2.50;81.18
69214;BME280;56325;47.030;18.518;2022-12-11T12:48:14;99019.47;;;2.52;82.15
69214;BME280;56325;47.030;18.518;2022-12-11T12:50:50;99025.75;;;2.49;81.23
69214;BME280;56325;47.030;18.518;2022-12-11T12:53:27;99029.47;;;2.55;81.61
69214;BME280;56325;47.030;18.518;2022-12-11T12:56:05;99034.22;;;2.51;80.74
69214;BME280;56325;47.030;18.518;2022-12-11T12:58:41;99043.03;;;2.55;81.31
69214;BME280;56325;47.030;18.518;2022-12-11T13:01:18;99052.47;;;2.51;81.68
69214;BME280;56325;47.030;18.518;2022-12-11T13:03:57;99061.81;;;2.50;81.62
69214;BME280;56325;47.030;18.518;2022-12-11T13:06:36;99067.22;;;2.50;80.59
69214;BME280;56325;47.030;18.518;2022-12-11T13:09:16;99071.34;;;2.54;81.20
69214;BME280;56325;47.030;18.518;2022-12-11T13:11:53;99076.66;;;2.45;81.00
69214;BME280;56325;47.030;18.518;2022-12-11T13:14:30;99067.88;;;2.41;80.60
69214;BME280;56325;47.030;18.518;2022-12-11T13:17:24;99077.13;;;2.56;81.20
69214;BME280;56325;47.030;18.518;2022-12-11T13:20:13;99074.28;;;2.47;81.42
69214;BME280;56325;47.030;18.518;2022-12-11T13:22:52;99077.00;;;2.47;81.30
69214;BME280;56325;47.030;18.518;2022-12-11T13:25:29;99070.47;;;2.45;82.17
69214;BME280;56325;47.030;18.518;2022-12-11T13:28:22;99075.47;;;2.46;80.80
69214;BME280;56325;47.030;18.518;2022-12-11T13:30:59;99065.38;;;2.47;80.57
69214;BME280;56325;47.030;18.518;2022-12-11T13:33:40;99069.28;;;2.46;81.60
69214;BME280;56325;47.030;18.518;2022-12-11T13:36:27;99076.75;;;2.42;80.91
69214;BME280;56325;47.030;18.518;2022-12-11T13:39:05;99081.88;;;2.52;81.32
69214;BME280;56325;47.030;18.518;2022-12-11T13:41:45;99081.88;;;2.52;80.84
69214;BME280;56325;47.030;18.518;2022-12-11T13:44:23;99099.78;;;2.50;80.46
69214;BME280;56325;47.030;18.518;2022-12-11T13:47:02;99097.59;;;2.45;80.39
69214;BME280;56325;47.030;18.518;2022-12-11T13:49:40;99095.84;;;2.38;80.61
69214;BME280;56325;47.030;18.518;2022-12-11T13:52:19;99100.22;;;2.48;81.30
69214;BME280;56325;47.030;18.518;2022-12-11T13:54:55;99110.06;;;2.42;80.67
69214;BME280;56325;47.030;18.518;2022-12-11T13:57:31;99106.91;;;2.31;80.88
69214;BME280;56325;47.030;18.518;2022-12-11T14:00:19;99099.81;;;2.21;81.95
69214;BME280;56325;47.030;18.518;2022-12-11T14:02:56;99108.19;;;2.26;81.28